sensor_id;sensor_type;location;lat;lon;timestamp;P1;durP1;ratioP1;P2;durP2;ratioP2
72974;SDS011;74127;54.228;37.632;2024-03-06T00:02:52;14;;;13.1;;
72974;SDS011;74127;54.228;37.632;2024-03-06T00:06:52;14;;;13.1;;
72974;SDS011;74127;54.228;37.632;2024-03-06T00:10:52;13.2;;;12.4;;
72974;SDS011;74127;54.228;37.632;2024-03-06T00:14:52;11.7;;;11;;
72974;SDS011;74127;54.228;37.632;2024-03-06T00:18:52;13.4;;;12.6;;
72974;SDS011;74127;54.228;37.632;2024-03-06T00:22:52;12.8;;;12;;
72974;SDS011;74127;54.228;37.632;2024-03-06T00:26:52;12.8;;;12;;
72974;SDS011;74127;54.228;37.632;2024-03-06T00:30:52;14.4;;;13.4;;
72974;SDS011;74127;54.228;37.632;2024-03-06T00:34:52;13.4;;;12.5;;
72974;SDS011;74127;54.228;37.632;2024-03-06T00:38:53;12.3;;;11.6;;
72974;SDS011;74127;54.228;37.632;2024-03-06T00:42:52;12.4;;;11.6;;
72974;SDS011;74127;54.228;37.632;2024-03-06T00:46:52;12.4;;;11.6;;
72974;SDS011;74127;54.228;37.632;2024-03-06T00:50:52;12.9;;;12.1;;
72974;SDS011;74127;54.228;37.632;2024-03-06T00:54:52;11.6;;;10.8;;
72974;SDS011;74127;54.228;37.632;2024-03-06T00:58:52;11.7;;;10.8;;
72974;SDS011;74127;54.228;37.632;2024-03-06T01:02:53;12.4;;;11.6;;
72974;SDS011;74127;54.228;37.632;2024-03-06T01:06:52;12.4;;;11.6;;
72974;SDS011;74127;54.228;37.632;2024-03-06T01:10:53;11;;;10.4;;
72974;SDS011;74127;54.228;37.632;2024-03-06T01:14:52;12.3;;;11.5;;
72974;SDS011;74127;54.228;37.632;2024-03-06T01:18:53;11.4;;;10.6;;
72974;SDS011;74127;54.228;37.632;2024-03-06T01:22:52;11.4;;;10.6;;
72974;SDS011;74127;54.228;37.632;2024-03-06T01:26:53;10.9;;;10.3;;
72974;SDS011;74127;54.228;37.632;2024-03-06T01:30:53;12.6;;;11.7;;
72974;SDS011;74127;54.228;37.632;2024-03-06T01:34:53;14.5;;;13.5;;
72974;SDS011;74127;54.228;37.632;2024-03-06T01:38:53;11;;;10.3;;
72974;SDS011;74127;54.228;37.632;2024-03-06T01:42:53;11;;;10.3;;
72974;SDS011;74127;54.228;37.632;2024-03-06T01:46:53;13.1;;;12;;
72974;SDS011;74127;54.228;37.632;2024-03-06T01:50:57;11.9;;;11.1;;
72974;SDS011;74127;54.228;37.632;2024-03-06T01:54:53;11.9;;;11.1;;
72974;SDS011;74127;54.228;37.632;2024-03-06T01:58:53;11.1;;;10.3;;
72974;SDS011;74127;54.228;37.632;2024-03-06T02:02:53;11.1;;;10.3;;
72974;SDS011;74127;54.228;37.632;2024-03-06T02:06:53;12.2;;;11.4;;
72974;SDS011;74127;54.228;37.632;2024-03-06T02:10:53;11.2;;;10.4;;
72974;SDS011;74127;54.228;37.632;2024-03-06T02:14:53;10.1;;;9.3;;
72974;SDS011;74127;54.228;37.632;2024-03-06T02:18:53;11.6;;;10.9;;
72974;SDS011;74127;54.228;37.632;2024-03-06T02:22:53;11.6;;;10.9;;
72974;SDS011;74127;54.228;37.632;2024-03-06T02:26:53;11.3;;;10.5;;
72974;SDS011;74127;54.228;37.632;2024-03-06T02:30:53;11.6;;;10.6;;
72974;SDS011;74127;54.228;37.632;2024-03-06T02:34:53;10.9;;;10.2;;
72974;SDS011;74127;54.228;37.632;2024-03-06T02:38:53;11.2;;;10.4;;
72974;SDS011;74127;54.228;37.632;2024-03-06T02:42:53;11.2;;;10.4;;
72974;SDS011;74127;54.228;37.632;2024-03-06T02:46:53;10.1;;;9.4;;
72974;SDS011;74127;54.228;37.632;2024-03-06T02:50:53;9.9;;;9.3;;
72974;SDS011;74127;54.228;37.632;2024-03-06T02:54:53;10.1;;;9.5;;
72974;SDS011;74127;54.228;37.632;2024-03-06T02:58:53;10.1;;;9.5;;
72974;SDS011;74127;54.228;37.632;2024-03-06T03:02:53;9.2;;;8.6;;
72974;SDS011;74127;54.228;37.632;2024-03-06T03:06:53;9.7;;;9;;
72974;SDS011;74127;54.228;37.632;2024-03-06T03:10:53;8.4;;;7.8;;
72974;SDS011;74127;54.228;37.632;2024-03-06T03:14:53;9.6;;;8.7;;
72974;SDS011;74127;54.228;37.632;2024-03-06T03:18:53;9.6;;;8.7;;
72974;SDS011;74127;54.228;37.632;2024-03-06T03:22:53;8;;;7.4;;
72974;SDS011;74127;54.228;37.632;2024-03-06T03:26:53;9;;;8.4;;
72974;SDS011;74127;54.228;37.632;2024-03-06T03:30:53;8.7;;;8.1;;
72974;SDS011;74127;54.228;37.632;2024-03-06T03:34:53;9.4;;;8.5;;
72974;SDS011;74127;54.228;37.632;2024-03-06T03:38:53;9.4;;;8.5;;
72974;SDS011;74127;54.228;37.632;2024-03-06T03:42:53;7.6;;;7.1;;
72974;SDS011;74127;54.228;37.632;2024-03-06T03:46:53;7.9;;;7.4;;
72974;SDS011;74127;54.228;37.632;2024-03-06T03:50:53;7.6;;;7;;
72974;SDS011;74127;54.228;37.632;2024-03-06T03:54:53;8.2;;;7.5;;
72974;SDS011;74127;54.228;37.632;2024-03-06T03:58:53;8.2;;;7.5;;
72974;SDS011;74127;54.228;37.632;2024-03-06T04:02:53;7.7;;;6.9;;
72974;SDS011;74127;54.228;37.632;2024-03-06T04:06:53;7.8;;;7.1;;
72974;SDS011;74127;54.228;37.632;2024-03-06T04:10:53;8.5;;;7.9;;
72974;SDS011;74127;54.228;37.632;2024-03-06T04:14:53;6.9;;;6.4;;
72974;SDS011;74127;54.228;37.632;2024-03-06T04:18:53;6.9;;;6.4;;
72974;SDS011;74127;54.228;37.632;2024-03-06T04:22:53;6.8;;;6.3;;
72974;SDS011;74127;54.228;37.632;2024-03-06T04:26:53;6.9;;;6.4;;
72974;SDS011;74127;54.228;37.632;2024-03-06T04:30:53;6.3;;;5.9;;
72974;SDS011;74127;54.228;37.632;2024-03-06T04:34:53;7.2;;;6.7;;
72974;SDS011;74127;54.228;37.632;2024-03-06T04:38:53;7.2;;;6.7;;
72974;SDS011;74127;54.228;37.632;2024-03-06T04:42:53;7;;;6.6;;
72974;SDS011;74127;54.228;37.632;2024-03-06T04:46:53;6.6;;;6.2;;
72974;SDS011;74127;54.228;37.632;2024-03-06T04:50:53;7.4;;;7;;
72974;SDS011;74127;54.228;37.632;2024-03-06T04:54:53;7.4;;;7;;
72974;SDS011;74127;54.228;37.632;2024-03-06T04:58:53;5.9;;;5.6;;
72974;SDS011;74127;54.228;37.632;2024-03-06T05:02:53;6.9;;;6.5;;
72974;SDS011;74127;54.228;37.632;2024-03-06T05:06:53;8.2;;;7.7;;
72974;SDS011;74127;54.228;37.632;2024-03-06T05:10:53;8.3;;;7.8;;
72974;SDS011;74127;54.228;37.632;2024-03-06T05:14:55;8.3;;;7.8;;
72974;SDS011;74127;54.228;37.632;2024-03-06T05:18:53;7.1;;;6.7;;
72974;SDS011;74127;54.228;37.632;2024-03-06T05:22:53;8.8;;;8.3;;
72974;SDS011;74127;54.228;37.632;2024-03-06T05:26:53;8.8;;;8.3;;
72974;SDS011;74127;54.228;37.632;2024-03-06T05:30:53;9.4;;;8.8;;
72974;SDS011;74127;54.228;37.632;2024-03-06T05:34:53;9.4;;;8.8;;
72974;SDS011;74127;54.228;37.632;2024-03-06T05:38:53;8.6;;;8;;
72974;SDS011;74127;54.228;37.632;2024-03-06T05:42:53;10.5;;;9.6;;
72974;SDS011;74127;54.228;37.632;2024-03-06T05:46:53;9.4;;;8.6;;
72974;SDS011;74127;54.228;37.632;2024-03-06T05:50:53;9.3;;;8.7;;
72974;SDS011;74127;54.228;37.632;2024-03-06T05:54:53;9.3;;;8.7;;
72974;SDS011;74127;54.228;37.632;2024-03-06T05:58:53;9.8;;;9.1;;
72974;SDS011;74127;54.228;37.632;2024-03-06T06:02:53;13.6;;;12.5;;
72974;SDS011;74127;54.228;37.632;2024-03-06T06:06:53;11.7;;;11;;
72974;SDS011;74127;54.228;37.632;2024-03-06T06:10:53;12.7;;;11.8;;
72974;SDS011;74127;54.228;37.632;2024-03-06T06:14:53;12.7;;;11.8;;
72974;SDS011;74127;54.228;37.632;2024-03-06T06:18:53;11.6;;;10.9;;
72974;SDS011;74127;54.228;37.632;2024-03-06T06:22:53;15.4;;;14;;
72974;SDS011;74127;54.228;37.632;2024-03-06T06:26:53;12.9;;;11.8;;
72974;SDS011;74127;54.228;37.632;2024-03-06T06:30:53;12.9;;;11.8;;
72974;SDS011;74127;54.228;37.632;2024-03-06T06:34:53;13.6;;;12.4;;
72974;SDS011;74127;54.228;37.632;2024-03-06T06:38:53;13.7;;;12.6;;
72974;SDS011;74127;54.228;37.632;2024-03-06T06:42:54;12.6;;;11.5;;
72974;SDS011;74127;54.228;37.632;2024-03-06T06:46:53;12.1;;;11.3;;
72974;SDS011;74127;54.228;37.632;2024-03-06T06:50:53;12.1;;;11.3;;
72974;SDS011;74127;54.228;37.632;2024-03-06T06:54:53;13.3;;;11.9;;
72974;SDS011;74127;54.228;37.632;2024-03-06T06:58:53;12.8;;;11.9;;
72974;SDS011;74127;54.228;37.632;2024-03-06T07:02:53;13.4;;;12.6;;
72974;SDS011;74127;54.228;37.632;2024-03-06T07:06:53;12.4;;;11.7;;
72974;SDS011;74127;54.228;37.632;2024-03-06T07:10:53;12.4;;;11.7;;
72974;SDS011;74127;54.228;37.632;2024-03-06T07:14:53;13.9;;;13;;
72974;SDS011;74127;54.228;37.632;2024-03-06T07:18:53;15;;;14;;
72974;SDS011;74127;54.228;37.632;2024-03-06T07:22:53;15.1;;;14;;
72974;SDS011;74127;54.228;37.632;2024-03-06T07:26:53;13.4;;;12.7;;
72974;SDS011;74127;54.228;37.632;2024-03-06T07:30:53;13.4;;;12.7;;
72974;SDS011;74127;54.228;37.632;2024-03-06T07:34:53;13.5;;;12.6;;
72974;SDS011;74127;54.228;37.632;2024-03-06T07:38:53;14.1;;;13.2;;
72974;SDS011;74127;54.228;37.632;2024-03-06T07:42:53;13;;;12.1;;
72974;SDS011;74127;54.228;37.632;2024-03-06T07:46:53;12.8;;;12;;
72974;SDS011;74127;54.228;37.632;2024-03-06T07:50:53;12.8;;;12;;
72974;SDS011;74127;54.228;37.632;2024-03-06T07:54:53;13.5;;;12.7;;
72974;SDS011;74127;54.228;37.632;2024-03-06T07:58:54;14.4;;;13.4;;
72974;SDS011;74127;54.228;37.632;2024-03-06T08:02:53;14.5;;;13.6;;
72974;SDS011;74127;54.228;37.632;2024-03-06T08:06:53;14.8;;;13.4;;
72974;SDS011;74127;54.228;37.632;2024-03-06T08:10:53;14.8;;;13.4;;
72974;SDS011;74127;54.228;37.632;2024-03-06T08:14:53;12.9;;;12.1;;
72974;SDS011;74127;54.228;37.632;2024-03-06T08:18:55;13.2;;;12.2;;
72974;SDS011;74127;54.228;37.632;2024-03-06T08:22:53;15.2;;;14.2;;
72974;SDS011;74127;54.228;37.632;2024-03-06T08:26:53;15.2;;;14.2;;
72974;SDS011;74127;54.228;37.632;2024-03-06T08:30:53;13;;;12.3;;
72974;SDS011;74127;54.228;37.632;2024-03-06T08:34:53;12.6;;;11.9;;
72974;SDS011;74127;54.228;37.632;2024-03-06T08:38:53;15.1;;;14.1;;
72974;SDS011;74127;54.228;37.632;2024-03-06T08:42:54;12;;;11.3;;
72974;SDS011;74127;54.228;37.632;2024-03-06T08:46:53;12;;;11.3;;
72974;SDS011;74127;54.228;37.632;2024-03-06T08:50:53;12.4;;;11.7;;
72974;SDS011;74127;54.228;37.632;2024-03-06T08:54:53;13;;;12.1;;
72974;SDS011;74127;54.228;37.632;2024-03-06T08:58:53;14.7;;;13.9;;
72974;SDS011;74127;54.228;37.632;2024-03-06T09:02:53;13.1;;;12.4;;
72974;SDS011;74127;54.228;37.632;2024-03-06T09:06:53;13.1;;;12.4;;
72974;SDS011;74127;54.228;37.632;2024-03-06T09:10:53;14;;;13;;
72974;SDS011;74127;54.228;37.632;2024-03-06T09:14:53;15.5;;;14.5;;
72974;SDS011;74127;54.228;37.632;2024-03-06T09:18:53;14.8;;;14;;
72974;SDS011;74127;54.228;37.632;2024-03-06T09:22:53;14.2;;;13.3;;
72974;SDS011;74127;54.228;37.632;2024-03-06T09:26:54;14.2;;;13.3;;
72974;SDS011;74127;54.228;37.632;2024-03-06T09:30:53;16.4;;;15.5;;
72974;SDS011;74127;54.228;37.632;2024-03-06T09:34:53;14.8;;;13.9;;
72974;SDS011;74127;54.228;37.632;2024-03-06T09:38:53;15.1;;;14.2;;
72974;SDS011;74127;54.228;37.632;2024-03-06T09:42:53;14.7;;;13.8;;
72974;SDS011;74127;54.228;37.632;2024-03-06T09:46:54;14.7;;;13.8;;
72974;SDS011;74127;54.228;37.632;2024-03-06T09:50:57;13;;;12.3;;
72974;SDS011;74127;54.228;37.632;2024-03-06T09:54:54;14.2;;;13.4;;
72974;SDS011;74127;54.228;37.632;2024-03-06T09:58:53;16.7;;;15.4;;
72974;SDS011;74127;54.228;37.632;2024-03-06T10:02:57;13.5;;;12.8;;
72974;SDS011;74127;54.228;37.632;2024-03-06T10:06:57;13.5;;;12.8;;
72974;SDS011;74127;54.228;37.632;2024-03-06T10:10:54;14.6;;;13.8;;
72974;SDS011;74127;54.228;37.632;2024-03-06T10:14:53;15.6;;;14.7;;
72974;SDS011;74127;54.228;37.632;2024-03-06T10:18:53;14.8;;;14;;
72974;SDS011;74127;54.228;37.632;2024-03-06T10:22:53;14.8;;;14;;
72974;SDS011;74127;54.228;37.632;2024-03-06T10:26:57;14.8;;;14;;
72974;SDS011;74127;54.228;37.632;2024-03-06T10:31:02;13.4;;;12.6;;
72974;SDS011;74127;54.228;37.632;2024-03-06T10:34:53;13.4;;;12.7;;
72974;SDS011;74127;54.228;37.632;2024-03-06T10:38:56;13.4;;;12.7;;
72974;SDS011;74127;54.228;37.632;2024-03-06T10:42:54;13.4;;;12.7;;
72974;SDS011;74127;54.228;37.632;2024-03-06T10:47:05;15.2;;;14.4;;
72974;SDS011;74127;54.228;37.632;2024-03-06T10:50:55;13.7;;;13;;
72974;SDS011;74127;54.228;37.632;2024-03-06T10:54:54;14;;;13.3;;
72974;SDS011;74127;54.228;37.632;2024-03-06T10:58:56;14.3;;;13.5;;
72974;SDS011;74127;54.228;37.632;2024-03-06T11:02:55;14.3;;;13.5;;
72974;SDS011;74127;54.228;37.632;2024-03-06T11:06:57;15.8;;;14.9;;
72974;SDS011;74127;54.228;37.632;2024-03-06T11:10:54;14;;;13.1;;
72974;SDS011;74127;54.228;37.632;2024-03-06T11:14:55;13.6;;;12.9;;
72974;SDS011;74127;54.228;37.632;2024-03-06T11:19:04;13.8;;;13.1;;
72974;SDS011;74127;54.228;37.632;2024-03-06T11:26:57;13.4;;;12.7;;
72974;SDS011;74127;54.228;37.632;2024-03-06T11:34:54;13;;;12.3;;
72974;SDS011;74127;54.228;37.632;2024-03-06T11:38:58;13.8;;;13;;
72974;SDS011;74127;54.228;37.632;2024-03-06T11:42:54;13.8;;;13;;
72974;SDS011;74127;54.228;37.632;2024-03-06T11:47:00;13.1;;;12.4;;
72974;SDS011;74127;54.228;37.632;2024-03-06T11:50:54;13.4;;;12.6;;
72974;SDS011;74127;54.228;37.632;2024-03-06T11:54:54;13.9;;;13.1;;
72974;SDS011;74127;54.228;37.632;2024-03-06T11:58:54;13.9;;;13.1;;
72974;SDS011;74127;54.228;37.632;2024-03-06T12:02:54;14.9;;;14;;
72974;SDS011;74127;54.228;37.632;2024-03-06T12:07:00;15.4;;;14.3;;
72974;SDS011;74127;54.228;37.632;2024-03-06T12:10:54;15.9;;;14.7;;
72974;SDS011;74127;54.228;37.632;2024-03-06T12:14:58;15.1;;;14.2;;
72974;SDS011;74127;54.228;37.632;2024-03-06T12:18:54;15.1;;;14.2;;
72974;SDS011;74127;54.228;37.632;2024-03-06T12:22:54;14.4;;;13.5;;
72974;SDS011;74127;54.228;37.632;2024-03-06T12:27:02;16.3;;;15.4;;
72974;SDS011;74127;54.228;37.632;2024-03-06T12:30:54;15;;;14.2;;
72974;SDS011;74127;54.228;37.632;2024-03-06T12:34:57;14.3;;;13.5;;
72974;SDS011;74127;54.228;37.632;2024-03-06T12:38:54;14.3;;;13.5;;
72974;SDS011;74127;54.228;37.632;2024-03-06T12:42:54;14.3;;;13.6;;
72974;SDS011;74127;54.228;37.632;2024-03-06T12:46:54;14.3;;;13.5;;
72974;SDS011;74127;54.228;37.632;2024-03-06T12:50:54;15;;;14.3;;
72974;SDS011;74127;54.228;37.632;2024-03-06T12:54:54;14.2;;;13.4;;
72974;SDS011;74127;54.228;37.632;2024-03-06T12:58:54;14.2;;;13.4;;
72974;SDS011;74127;54.228;37.632;2024-03-06T13:02:54;14.7;;;13.9;;
72974;SDS011;74127;54.228;37.632;2024-03-06T13:06:54;12.4;;;11.8;;
72974;SDS011;74127;54.228;37.632;2024-03-06T13:10:54;13.8;;;13;;
72974;SDS011;74127;54.228;37.632;2024-03-06T13:14:54;13.7;;;13;;
72974;SDS011;74127;54.228;37.632;2024-03-06T13:18:54;13.7;;;13;;
72974;SDS011;74127;54.228;37.632;2024-03-06T13:22:54;15.3;;;14.5;;
72974;SDS011;74127;54.228;37.632;2024-03-06T13:26:54;14.2;;;13.2;;
72974;SDS011;74127;54.228;37.632;2024-03-06T13:30:54;13.1;;;12.4;;
72974;SDS011;74127;54.228;37.632;2024-03-06T13:34:54;13.5;;;12.8;;
72974;SDS011;74127;54.228;37.632;2024-03-06T13:38:54;13.5;;;12.8;;
72974;SDS011;74127;54.228;37.632;2024-03-06T13:42:54;13.8;;;13.1;;
72974;SDS011;74127;54.228;37.632;2024-03-06T13:46:54;15.4;;;14.6;;
72974;SDS011;74127;54.228;37.632;2024-03-06T13:50:54;14.3;;;13.5;;
72974;SDS011;74127;54.228;37.632;2024-03-06T13:54:54;14.3;;;13.5;;
72974;SDS011;74127;54.228;37.632;2024-03-06T13:58:54;12.4;;;11.8;;
72974;SDS011;74127;54.228;37.632;2024-03-06T14:02:54;13.6;;;12.9;;
72974;SDS011;74127;54.228;37.632;2024-03-06T14:06:54;14.7;;;13.9;;
72974;SDS011;74127;54.228;37.632;2024-03-06T14:10:54;13.4;;;12.6;;
72974;SDS011;74127;54.228;37.632;2024-03-06T14:14:54;13.4;;;12.6;;
72974;SDS011;74127;54.228;37.632;2024-03-06T14:18:54;15.8;;;14.7;;
72974;SDS011;74127;54.228;37.632;2024-03-06T14:22:54;14.6;;;13.8;;
72974;SDS011;74127;54.228;37.632;2024-03-06T14:26:54;11.9;;;11.3;;
72974;SDS011;74127;54.228;37.632;2024-03-06T14:30:54;13.7;;;13;;
72974;SDS011;74127;54.228;37.632;2024-03-06T14:34:54;13.7;;;13;;
72974;SDS011;74127;54.228;37.632;2024-03-06T14:38:54;14.6;;;13.8;;
72974;SDS011;74127;54.228;37.632;2024-03-06T14:42:54;14.1;;;13.3;;
72974;SDS011;74127;54.228;37.632;2024-03-06T14:46:54;13.1;;;12.4;;
72974;SDS011;74127;54.228;37.632;2024-03-06T14:50:54;15.6;;;14.7;;
72974;SDS011;74127;54.228;37.632;2024-03-06T14:54:54;15.6;;;14.7;;
72974;SDS011;74127;54.228;37.632;2024-03-06T14:58:54;14.4;;;13.5;;
72974;SDS011;74127;54.228;37.632;2024-03-06T15:02:54;14.4;;;13.6;;
72974;SDS011;74127;54.228;37.632;2024-03-06T15:06:54;12.6;;;11.8;;
72974;SDS011;74127;54.228;37.632;2024-03-06T15:10:54;15;;;14.2;;
72974;SDS011;74127;54.228;37.632;2024-03-06T15:14:54;15;;;14.2;;
72974;SDS011;74127;54.228;37.632;2024-03-06T15:18:54;13.1;;;12.4;;
72974;SDS011;74127;54.228;37.632;2024-03-06T15:22:54;13.5;;;12.8;;
72974;SDS011;74127;54.228;37.632;2024-03-06T15:26:54;13.1;;;12.4;;
72974;SDS011;74127;54.228;37.632;2024-03-06T15:30:54;10.9;;;10.3;;
72974;SDS011;74127;54.228;37.632;2024-03-06T15:34:54;10.9;;;10.3;;
72974;SDS011;74127;54.228;37.632;2024-03-06T15:38:54;11.9;;;11.2;;
72974;SDS011;74127;54.228;37.632;2024-03-06T15:42:55;13.2;;;12.5;;
72974;SDS011;74127;54.228;37.632;2024-03-06T15:46:54;13.1;;;12.5;;
72974;SDS011;74127;54.228;37.632;2024-03-06T15:50:54;13.1;;;12.5;;
72974;SDS011;74127;54.228;37.632;2024-03-06T15:54:54;11.7;;;11.1;;
72974;SDS011;74127;54.228;37.632;2024-03-06T15:58:54;11.2;;;10.6;;
72974;SDS011;74127;54.228;37.632;2024-03-06T16:02:54;11.4;;;10.8;;
72974;SDS011;74127;54.228;37.632;2024-03-06T16:06:56;12.9;;;12.1;;
72974;SDS011;74127;54.228;37.632;2024-03-06T16:10:54;12.9;;;12.1;;
72974;SDS011;74127;54.228;37.632;2024-03-06T16:14:54;11;;;10.4;;
72974;SDS011;74127;54.228;37.632;2024-03-06T16:18:54;12.8;;;12.2;;
72974;SDS011;74127;54.228;37.632;2024-03-06T16:22:54;12.7;;;12;;
72974;SDS011;74127;54.228;37.632;2024-03-06T16:26:54;11.9;;;11.3;;
72974;SDS011;74127;54.228;37.632;2024-03-06T16:30:54;11.9;;;11.3;;
72974;SDS011;74127;54.228;37.632;2024-03-06T16:34:54;14.2;;;13.5;;
72974;SDS011;74127;54.228;37.632;2024-03-06T16:38:54;13.5;;;12.7;;
72974;SDS011;74127;54.228;37.632;2024-03-06T16:42:54;12.5;;;11.9;;
72974;SDS011;74127;54.228;37.632;2024-03-06T16:46:54;12.3;;;11.7;;
72974;SDS011;74127;54.228;37.632;2024-03-06T16:50:54;12.3;;;11.7;;
72974;SDS011;74127;54.228;37.632;2024-03-06T16:54:54;11.8;;;11.2;;
72974;SDS011;74127;54.228;37.632;2024-03-06T16:58:54;11.3;;;10.7;;
72974;SDS011;74127;54.228;37.632;2024-03-06T17:02:54;16.7;;;15.7;;
72974;SDS011;74127;54.228;37.632;2024-03-06T17:06:54;14.6;;;13.9;;
72974;SDS011;74127;54.228;37.632;2024-03-06T17:10:54;14.6;;;13.9;;
72974;SDS011;74127;54.228;37.632;2024-03-06T17:14:54;11.9;;;11.3;;
72974;SDS011;74127;54.228;37.632;2024-03-06T17:18:54;13.5;;;12.8;;
72974;SDS011;74127;54.228;37.632;2024-03-06T17:22:54;11.1;;;10.5;;
72974;SDS011;74127;54.228;37.632;2024-03-06T17:26:54;11.1;;;10.5;;
72974;SDS011;74127;54.228;37.632;2024-03-06T17:30:54;10.8;;;10.2;;
72974;SDS011;74127;54.228;37.632;2024-03-06T17:34:54;11.9;;;11.3;;
72974;SDS011;74127;54.228;37.632;2024-03-06T17:38:54;12.2;;;11.6;;
72974;SDS011;74127;54.228;37.632;2024-03-06T17:42:54;10.9;;;10.3;;
72974;SDS011;74127;54.228;37.632;2024-03-06T17:46:54;10.9;;;10.3;;
72974;SDS011;74127;54.228;37.632;2024-03-06T17:50:54;10.7;;;10.2;;
72974;SDS011;74127;54.228;37.632;2024-03-06T17:54:54;11.1;;;10.5;;
72974;SDS011;74127;54.228;37.632;2024-03-06T17:58:54;12.1;;;11.5;;
72974;SDS011;74127;54.228;37.632;2024-03-06T18:02:54;12.5;;;11.6;;
72974;SDS011;74127;54.228;37.632;2024-03-06T18:06:54;12.5;;;11.6;;
72974;SDS011;74127;54.228;37.632;2024-03-06T18:10:54;11.6;;;11;;
72974;SDS011;74127;54.228;37.632;2024-03-06T18:14:57;12.1;;;11.5;;
72974;SDS011;74127;54.228;37.632;2024-03-06T18:18:54;11.3;;;10.7;;
72974;SDS011;74127;54.228;37.632;2024-03-06T18:22:54;13.7;;;12.9;;
72974;SDS011;74127;54.228;37.632;2024-03-06T18:26:54;13.7;;;12.9;;
72974;SDS011;74127;54.228;37.632;2024-03-06T18:30:54;12.6;;;12;;
72974;SDS011;74127;54.228;37.632;2024-03-06T18:34:54;10.1;;;9.6;;
72974;SDS011;74127;54.228;37.632;2024-03-06T18:38:54;12.9;;;12;;
72974;SDS011;74127;54.228;37.632;2024-03-06T18:42:54;11.3;;;10.7;;
72974;SDS011;74127;54.228;37.632;2024-03-06T18:46:54;11.3;;;10.7;;
72974;SDS011;74127;54.228;37.632;2024-03-06T18:50:54;10.6;;;10.1;;
72974;SDS011;74127;54.228;37.632;2024-03-06T18:54:54;11.9;;;11.3;;
72974;SDS011;74127;54.228;37.632;2024-03-06T18:58:55;12.1;;;11.5;;
72974;SDS011;74127;54.228;37.632;2024-03-06T19:02:54;12.1;;;11.5;;
72974;SDS011;74127;54.228;37.632;2024-03-06T19:06:54;12.1;;;11.5;;
72974;SDS011;74127;54.228;37.632;2024-03-06T19:10:54;11.2;;;10.6;;
72974;SDS011;74127;54.228;37.632;2024-03-06T19:14:54;10.9;;;10.3;;
72974;SDS011;74127;54.228;37.632;2024-03-06T19:18:54;11.7;;;11.1;;
72974;SDS011;74127;54.228;37.632;2024-03-06T19:22:54;11.7;;;11.1;;
72974;SDS011;74127;54.228;37.632;2024-03-06T19:26:55;12.6;;;11.9;;
72974;SDS011;74127;54.228;37.632;2024-03-06T19:30:54;12.9;;;12.2;;
72974;SDS011;74127;54.228;37.632;2024-03-06T19:34:55;10.6;;;10;;
72974;SDS011;74127;54.228;37.632;2024-03-06T19:38:54;10.7;;;10.1;;
72974;SDS011;74127;54.228;37.632;2024-03-06T19:42:55;10.7;;;10.1;;
72974;SDS011;74127;54.228;37.632;2024-03-06T19:46:54;10.7;;;10.1;;
72974;SDS011;74127;54.228;37.632;2024-03-06T19:50:54;9.8;;;9.3;;
72974;SDS011;74127;54.228;37.632;2024-03-06T19:54:54;11.2;;;10.5;;
72974;SDS011;74127;54.228;37.632;2024-03-06T19:58:54;11;;;10.4;;
72974;SDS011;74127;54.228;37.632;2024-03-06T20:02:54;11;;;10.4;;
72974;SDS011;74127;54.228;37.632;2024-03-06T20:06:54;11.9;;;11.2;;
72974;SDS011;74127;54.228;37.632;2024-03-06T20:10:54;11.6;;;10.9;;
72974;SDS011;74127;54.228;37.632;2024-03-06T20:14:54;11.5;;;10.8;;
72974;SDS011;74127;54.228;37.632;2024-03-06T20:18:54;11.4;;;10.7;;
72974;SDS011;74127;54.228;37.632;2024-03-06T20:22:55;11.4;;;10.7;;
72974;SDS011;74127;54.228;37.632;2024-03-06T20:26:55;12;;;11.3;;
72974;SDS011;74127;54.228;37.632;2024-03-06T20:30:55;10.8;;;10.1;;
72974;SDS011;74127;54.228;37.632;2024-03-06T20:34:55;11.7;;;10.9;;
72974;SDS011;74127;54.228;37.632;2024-03-06T20:38:55;10.8;;;10.2;;
72974;SDS011;74127;54.228;37.632;2024-03-06T20:42:55;10.8;;;10.2;;
72974;SDS011;74127;54.228;37.632;2024-03-06T20:46:55;10.2;;;9.6;;
72974;SDS011;74127;54.228;37.632;2024-03-06T20:50:55;10;;;9.4;;
72974;SDS011;74127;54.228;37.632;2024-03-06T20:54:55;8.2;;;7.7;;
72974;SDS011;74127;54.228;37.632;2024-03-06T20:58:55;10.3;;;9.7;;
72974;SDS011;74127;54.228;37.632;2024-03-06T21:02:55;10.3;;;9.7;;
72974;SDS011;74127;54.228;37.632;2024-03-06T21:06:55;7.6;;;7.1;;
72974;SDS011;74127;54.228;37.632;2024-03-06T21:10:55;9;;;8.4;;
72974;SDS011;74127;54.228;37.632;2024-03-06T21:14:55;7.2;;;6.7;;
72974;SDS011;74127;54.228;37.632;2024-03-06T21:18:55;7.2;;;6.7;;
72974;SDS011;74127;54.228;37.632;2024-03-06T21:22:55;6.9;;;6.4;;
72974;SDS011;74127;54.228;37.632;2024-03-06T21:26:55;7.1;;;6.6;;
72974;SDS011;74127;54.228;37.632;2024-03-06T21:30:55;8.3;;;7.7;;
72974;SDS011;74127;54.228;37.632;2024-03-06T21:34:55;7.8;;;7.4;;
72974;SDS011;74127;54.228;37.632;2024-03-06T21:38:55;7.8;;;7.4;;
72974;SDS011;74127;54.228;37.632;2024-03-06T21:42:55;7.8;;;7.3;;
72974;SDS011;74127;54.228;37.632;2024-03-06T21:46:55;6.1;;;5.7;;
72974;SDS011;74127;54.228;37.632;2024-03-06T21:50:55;7.7;;;7.2;;
72974;SDS011;74127;54.228;37.632;2024-03-06T21:54:55;7.2;;;6.7;;
72974;SDS011;74127;54.228;37.632;2024-03-06T21:58:55;7.2;;;6.7;;
72974;SDS011;74127;54.228;37.632;2024-03-06T22:02:55;6.7;;;6.3;;
72974;SDS011;74127;54.228;37.632;2024-03-06T22:06:55;7.1;;;6.6;;
72974;SDS011;74127;54.228;37.632;2024-03-06T22:10:55;8.2;;;7.4;;
72974;SDS011;74127;54.228;37.632;2024-03-06T22:14:55;7;;;6.5;;
72974;SDS011;74127;54.228;37.632;2024-03-06T22:18:55;7;;;6.5;;
72974;SDS011;74127;54.228;37.632;2024-03-06T22:22:55;5.9;;;5.5;;
72974;SDS011;74127;54.228;37.632;2024-03-06T22:26:55;6.5;;;6;;
72974;SDS011;74127;54.228;37.632;2024-03-06T22:30:55;7.2;;;6.7;;
72974;SDS011;74127;54.228;37.632;2024-03-06T22:34:55;7;;;6.4;;
72974;SDS011;74127;54.228;37.632;2024-03-06T22:38:55;7;;;6.4;;
72974;SDS011;74127;54.228;37.632;2024-03-06T22:42:57;6;;;5.6;;
72974;SDS011;74127;54.228;37.632;2024-03-06T22:46:55;5.8;;;5.4;;
72974;SDS011;74127;54.228;37.632;2024-03-06T22:50:55;7;;;6.5;;
72974;SDS011;74127;54.228;37.632;2024-03-06T22:54:55;7;;;6.5;;
72974;SDS011;74127;54.228;37.632;2024-03-06T22:58:55;6.8;;;6.4;;
72974;SDS011;74127;54.228;37.632;2024-03-06T23:02:55;5.6;;;5.3;;
72974;SDS011;74127;54.228;37.632;2024-03-06T23:06:55;7;;;6.5;;
72974;SDS011;74127;54.228;37.632;2024-03-06T23:10:55;6;;;5.6;;
72974;SDS011;74127;54.228;37.632;2024-03-06T23:14:55;6;;;5.6;;
72974;SDS011;74127;54.228;37.632;2024-03-06T23:18:55;7.1;;;6.7;;
72974;SDS011;74127;54.228;37.632;2024-03-06T23:22:55;6.3;;;5.9;;
72974;SDS011;74127;54.228;37.632;2024-03-06T23:26:55;5.8;;;5.4;;
72974;SDS011;74127;54.228;37.632;2024-03-06T23:30:55;5.3;;;5;;
72974;SDS011;74127;54.228;37.632;2024-03-06T23:34:55;5.3;;;5;;
72974;SDS011;74127;54.228;37.632;2024-03-06T23:38:55;5.9;;;5.6;;
72974;SDS011;74127;54.228;37.632;2024-03-06T23:42:55;6.5;;;6.1;;
72974;SDS011;74127;54.228;37.632;2024-03-06T23:46:55;6.5;;;6.1;;
72974;SDS011;74127;54.228;37.632;2024-03-06T23:50:55;7.2;;;6.8;;
72974;SDS011;74127;54.228;37.632;2024-03-06T23:54:56;7.2;;;6.8;;
72974;SDS011;74127;54.228;37.632;2024-03-06T23:58:55;5.7;;;5.4;;
